Decoded Metar for LFRM (LE MANS in FRANCE) (IATA:LME) | Meteo·Mobile Aviation Weather
aviador You're here:

LFRM Decoded Metar

LE MANS in FRANCE
Report Time2018-12-11 11:00:00
UTC Time2018-12-11 11:23:23
Flight Rules lifr LIFR
WindCalm
Visibility0600 m
Phenomena:Fog
Clouds:N/A
CeilingNone
Temp03°C (ISA -12)
Dew Point03°C (100% RH)
AAT1.5°C
QNH1026 hPa
Density Alt-1,581 ft
Elevation171 ft
Report Wrong Elevation
Raw Report
LFRM 111100Z AUTO 00000KT 0600 0550 FG VV/// 03/03 Q1026 BECMG
9999 NSW SCT010=

Extra information for LFRM:More info

Metar Taf Metar & Taf Last 4 Metars F.Rules Stats Wind Profile Meteogram Temp Stats Airport Information Weather charts Add Link Nearby VenuesMetar ALERT Operation Metar Decoded Social comments